createdAt,value
2023-08-09T00:29:34.606Z,98772.91
2023-08-09T01:45:44.746Z,98774.75
2023-08-09T01:48:12.919Z,98756.03
2023-08-09T01:56:33.255Z,98792.00
2023-08-09T01:59:06.881Z,98763.56
2023-08-09T02:01:34.409Z,98764.06
2023-08-09T02:04:01.772Z,98754.22
2023-08-09T02:06:29.123Z,98731.25
2023-08-09T02:08:56.564Z,98761.25
2023-08-09T02:11:23.873Z,98741.69
2023-08-09T02:13:53.627Z,98756.09
2023-08-09T02:16:21.619Z,98737.50
2023-08-09T02:18:49.926Z,98787.00
2023-08-09T02:21:17.175Z,98765.25
2023-08-09T02:23:44.522Z,98767.16
2023-08-09T02:26:16.272Z,98791.38
2023-08-09T02:28:43.647Z,98736.97
2023-08-09T02:31:12.526Z,98783.84
2023-08-09T02:33:45.332Z,98782.91
2023-08-09T02:36:13.208Z,98768.50
2023-08-09T02:38:40.551Z,98756.16
2023-08-09T02:41:07.753Z,98763.56
2023-08-09T02:43:34.976Z,98775.03
2023-08-09T02:46:02.494Z,98773.44
2023-08-09T02:48:29.660Z,98768.28
2023-08-09T02:50:56.977Z,98792.94
2023-08-09T02:53:34.151Z,98761.75
2023-08-09T02:56:02.176Z,98754.44
2023-08-09T02:58:32.588Z,98775.66
2023-08-09T03:00:59.908Z,98799.78
2023-08-09T03:03:27.355Z,98786.78
2023-08-09T03:05:54.781Z,98753.13
2023-08-09T03:08:22.380Z,98749.59
2023-08-09T03:10:50.042Z,98777.47
2023-08-09T03:13:17.987Z,98781.03
2023-08-09T03:15:45.933Z,98780.78
2023-08-09T03:18:14.751Z,98737.16
2023-08-09T03:20:42.623Z,98788.78
2023-08-09T03:23:11.661Z,98744.41
2023-08-09T03:25:40.162Z,98762.00
2023-08-09T03:28:08.511Z,98777.75
2023-08-09T03:30:35.883Z,98776.66
2023-08-09T03:33:03.500Z,98775.66
2023-08-09T03:35:31.805Z,98758.41
2023-08-09T03:37:59.898Z,98781.22
2023-08-09T03:40:27.475Z,98752.78
2023-08-09T03:42:55.718Z,98775.13
2023-08-09T03:45:23.897Z,98782.09
2023-08-09T03:47:53.986Z,98786.66
2023-08-09T03:50:24.053Z,98785.19
2023-08-09T03:52:52.143Z,98780.66
2023-08-09T03:55:19.721Z,98794.28
2023-08-09T03:57:46.969Z,98775.56
2023-08-09T04:00:19.181Z,98765.13
2023-08-09T04:02:48.387Z,98783.25
2023-08-09T04:05:17.922Z,98762.41
2023-08-09T04:07:45.355Z,98774.16
2023-08-09T04:10:13.717Z,98789.81
2023-08-09T04:12:41.250Z,98778.38
2023-08-09T04:15:09.434Z,98753.34
2023-08-09T04:17:38.166Z,98775.88
2023-08-09T04:20:13.534Z,98756.44
2023-08-09T04:22:41.269Z,98775.41
2023-08-09T04:25:11.802Z,98759.16
2023-08-09T04:27:43.177Z,98766.16
2023-08-09T04:30:15.470Z,98764.97
2023-08-09T04:32:43.365Z,98789.16
2023-08-09T04:35:11.575Z,98745.59
2023-08-09T04:37:39.039Z,98739.28
2023-08-09T04:40:12.558Z,98787.78
2023-08-09T04:42:42.348Z,98756.41
2023-08-09T04:45:12.159Z,98803.78
2023-08-09T04:47:39.732Z,98756.47
2023-08-09T04:50:11.086Z,98764.41
2023-08-09T04:52:40.040Z,98791.91
2023-08-09T04:55:09.414Z,98803.84
2023-08-09T05:03:09.479Z,98775.06
2023-08-09T05:05:47.080Z,98722.06
2023-08-09T05:08:25.035Z,98784.59
2023-08-09T05:10:56.357Z,98817.69
2023-08-09T05:13:24.579Z,98811.47
2023-08-09T05:24:58.242Z,98798.56
2023-08-09T05:41:52.298Z,98800.06
2023-08-09T05:44:20.441Z,98767.84
2023-08-09T05:49:30.533Z,98798.44
2023-08-09T05:52:03.914Z,98821.41
2023-08-09T05:54:32.361Z,98834.53
2023-08-09T05:57:01.015Z,98796.00
2023-08-09T06:13:11.945Z,98816.88
2023-08-09T06:18:24.794Z,98808.88
2023-08-09T06:21:01.545Z,98814.91
2023-08-09T06:23:31.121Z,98799.16
2023-08-09T07:13:25.573Z,98857.31
2023-08-09T07:38:25.535Z,98847.25
2023-08-09T07:46:18.487Z,98798.91
2023-08-09T08:02:44.165Z,98808.13
2023-08-09T08:05:14.681Z,98861.34
2023-08-09T08:07:45.044Z,98812.44
2023-08-09T09:06:20.464Z,98921.97
2023-08-09T09:24:37.737Z,98907.22
2023-08-09T10:23:30.690Z,98940.84
2023-08-09T10:29:08.334Z,98893.63
2023-08-09T10:34:57.077Z,98921.31
2023-08-09T10:37:25.832Z,98915.78
2023-08-09T10:40:13.910Z,98909.22
2023-08-09T10:42:41.503Z,98938.59
2023-08-09T10:45:09.917Z,98922.72
2023-08-09T10:47:38.029Z,98928.19
2023-08-09T10:50:16.255Z,98947.50
2023-08-09T10:52:50.501Z,98925.19
2023-08-09T10:55:25.963Z,98958.56
2023-08-09T10:57:56.636Z,98922.88
2023-08-09T11:00:25.762Z,98935.75
2023-08-09T11:02:55.809Z,98936.19
2023-08-09T11:05:29.090Z,98943.59
2023-08-09T11:08:03.975Z,98895.06
2023-08-09T11:10:36.719Z,98944.31
2023-08-09T11:13:06.389Z,98912.63
2023-08-09T11:15:34.840Z,98939.06
2023-08-09T11:18:03.070Z,98922.69
2023-08-09T11:20:31.498Z,98939.03
2023-08-09T11:23:00.473Z,98908.94
2023-08-09T11:25:29.588Z,98930.63
2023-08-09T11:27:59.396Z,98891.22
2023-08-09T11:30:31.614Z,98921.66
2023-08-09T11:35:47.832Z,98908.47
2023-08-09T11:38:18.223Z,98899.03
2023-08-09T11:40:53.714Z,98903.34
2023-08-09T11:43:23.042Z,98878.06
2023-08-09T11:45:56.305Z,98894.75
2023-08-09T11:48:30.903Z,98917.72
2023-08-09T11:51:13.564Z,98865.34
2023-08-09T11:53:42.391Z,98892.72
2023-08-09T11:56:24.627Z,98904.06
2023-08-09T11:58:54.143Z,98937.69
2023-08-09T12:01:24.234Z,98921.00
2023-08-09T12:04:06.940Z,98908.16
2023-08-09T12:06:47.959Z,98912.19
2023-08-09T12:12:35.355Z,98930.63
2023-08-09T12:15:03.132Z,98947.91
2023-08-09T12:17:33.322Z,98954.47
2023-08-09T14:12:28.118Z,99009.13
2023-08-09T14:15:42.590Z,99022.81
2023-08-09T14:18:10.031Z,99016.75
2023-08-09T14:20:40.247Z,98990.41
2023-08-09T14:23:09.975Z,98966.78
2023-08-09T14:25:38.182Z,98995.34
2023-08-09T14:28:05.870Z,98996.78
2023-08-09T14:30:33.638Z,99031.19
2023-08-09T14:33:03.608Z,98971.28
2023-08-09T14:35:31.928Z,99009.06
2023-08-09T14:37:59.250Z,98993.63
2023-08-09T14:40:26.725Z,98996.50
2023-08-09T14:42:55.344Z,99026.72
2023-08-09T14:45:22.752Z,99003.03
2023-08-09T14:47:50.285Z,98988.34
2023-08-09T14:50:17.972Z,98997.28
2023-08-09T14:52:45.470Z,99010.78
2023-08-09T14:55:13.135Z,99011.91
2023-08-09T14:57:41.486Z,99015.03
2023-08-09T15:00:11.749Z,99037.91
2023-08-09T15:02:44.752Z,99022.31
2023-08-09T15:05:13.058Z,99024.56
2023-08-09T15:07:41.346Z,99026.94
2023-08-09T15:10:08.972Z,99026.28
2023-08-09T15:12:36.698Z,99057.66
2023-08-09T15:15:08.444Z,99051.84
2023-08-09T15:17:36.261Z,99059.47
